Saturday, August 18, 2018, 3:17 AM EDT
Back to Local

KPSF, Pittsfield Municipal Airport

Location: Pittsfield, MA, United States Lat: 42.433
Local Time: 3:17 AM EDT ( 7:17 GMT) Lon: -73.283
Time Zone: US/Eastern Elev: 1194 ft

Show me the last for .
Show Decoded

2018-08-18 02:54 METAR KPSF 180654Z AUTO 25007KT 10SM BKN007 22/20 A2988 RMK AO2 RAB27E37 CIG
                 006V010 SLP087 P0000 T02170200 =
2018-08-18 02:41 METAR KPSF 180641Z AUTO 23009KT 10SM SCT007 22/20 A2988 RMK AO2 RAB27E37 P0000
                 T02220200 =
2018-08-18 01:54 METAR KPSF 180554Z AUTO 23006KT 10SM OVC006 22/20 A2990 RMK AO2 RAB11E20 SLP095
                 P0000 60257 T02170200 10239 20211 58013 =
2018-08-18 00:54 METAR KPSF 180454Z AUTO 21007KT 10SM OVC008 22/20 A2992 RMK AO2 RAE33 CIG
                 007V011 SLP101 P0004 T02220200 402890178 =
2018-08-18 00:14 METAR KPSF 180414Z AUTO 18007KT 10SM -RA BKN007 OVC011 22/20 A2993 RMK AO2 CIG
                 005V009 P0002 T02220200 =
2018-08-18 00:01 METAR KPSF 180401Z AUTO 16004KT 4SM RA BR BKN011 OVC023 22/20 A2993 RMK AO2
                 P0002 T02220200 =
2018-08-17 23:54 METAR KPSF 180354Z AUTO 18004KT 2 1/2SM RA BR BKN011 OVC047 22/20 A2993 RMK AO2
                 VIS 1 1/2V4 LTG DSNT SE SLP107 P0017 T02170200 =
2018-08-17 23:46 METAR KPSF 180346Z AUTO 00000KT 2 1/2SM RA BR BKN013 BKN024 OVC110 22/20 A2994
                 RMK AO2 LTG DSNT SE P0014 T02170200 =
2018-08-17 23:31 METAR KPSF 180331Z AUTO 22004KT 4SM -RA BKN017 BKN044 OVC110 22/19 A2994 RMK AO2
                 LTG DSNT E AND SE P0008 T02220194 =
2018-08-17 23:09 METAR KPSF 180309Z AUTO 23003KT 5SM -RA BR SCT021 BKN085 OVC110 22/19 A2993 RMK
                 AO2 LTG DSNT ALQDS P0003 T02170194 =
2018-08-17 22:54 METAR KPSF 180254Z AUTO 00000KT 3SM VCTS RA BR SCT046 SCT070 OVC090 22/20 A2994
                 RMK AO2 LTG DSNT ALQDS TSE10B27E54 SLP109 P0075 60236 T02170200 50001 =
2018-08-17 22:44 METAR KPSF 180244Z AUTO 17003KT 4SM TSRA BR FEW012 BKN043 OVC070 22/20 A2993 RMK
                 AO2 LTG DSNT ALQDS TSE10B27 P0071 T02170200 =
2018-08-17 22:35 METAR KPSF 180235Z AUTO 18005KT 2SM TSRA SCT010 SCT024 OVC035 22/19 A2994 RMK
                 AO2 LTG DSNT ALQDS TSE10B27 P0068 T02220194 =
2018-08-17 22:32 METAR KPSF 180232Z AUTO 21007KT 1SM +TSRA SCT009 SCT018 OVC024 22/19 A2994 RMK
                 AO2 LTG DSNT ALQDS TSE10B27 P0067 T02220194 =
2018-08-17 22:23 METAR KPSF 180223Z AUTO 19006KT 3/4SM VCTS +RA BR FEW006 BKN017 OVC026 22/20
                 A2995 RMK AO2 LTG DSNT ALQDS TSE10 P0052 T02170200 =
2018-08-17 22:15 METAR KPSF 180215Z AUTO 33004KT 1 1/2SM VCTS +RA BR SCT006 BKN013 OVC024 21/20
                 A2995 RMK AO2 LTG DSNT ALQDS TSE10 P0026 T02110200 =
2018-08-17 22:09 METAR KPSF 180209Z AUTO 32007KT 1 3/4SM +TSRA BR FEW004 BKN017 OVC038 22/20
                 A2996 RMK AO2 LTG DSNT ALQDS P0020 T02170200 =
2018-08-17 21:57 METAR KPSF 180157Z AUTO VRB03KT 3/4SM +TSRA BR BKN018 BKN036 OVC070 21/19 A2995
                 RMK AO2 LTG DSNT ALQDS P0008 T02110194 =
2018-08-17 21:54 METAR KPSF 180154Z AUTO 28007KT 1 1/4SM +TSRA BR SCT018 BKN036 OVC070 22/19
                 A2996 RMK AO2 LTG DSNT ALQDS SLP117 P0061 T02170194 =
2018-08-17 21:52 METAR KPSF 180152Z AUTO 25008KT 1 3/4SM TSRA BR FEW013 BKN050 OVC070 22/19 A2997
                 RMK AO2 LTG DSNT ALQDS P0052 =
2018-08-17 21:26 METAR KPSF 180126Z AUTO 00000KT 3SM TSRA BR BKN038 BKN050 OVC075 22/19 A2995 RMK
                 AO2 LTG DSNT ALQDS P0031 T02170194 =
2018-08-17 21:14 METAR KPSF 180114Z AUTO 20010G14KT 1 3/4SM +TSRA BR BKN036 OVC100 22/19 A2995
                 RMK AO2 LTG DSNT ALQDS P0021 T02170194 =
2018-08-17 20:59 METAR KPSF 180059Z AUTO 18007KT 3SM TSRA BR BKN031 BKN070 OVC100 21/19 A2997 RMK
                 AO2 LTG DSNT ALQDS P0002 T02110194 =
2018-08-17 20:54 METAR KPSF 180054Z AUTO 22007KT 2SM TSRA BR BKN027 OVC100 21/19 A2996 RMK AO2 PK
                 WND 23029/0029 WSHFT 0025 LTG DSNT ALQDS TSB2359 SLP121 P0100 T02110194 =
2018-08-17 20:41 METAR KPSF 180041Z AUTO 25015G25KT 1SM +TSRA BR BKN023 22/19 A2997 RMK AO2 PK
                 WND 23029/0029 WSHFT 0025 LTG DSNT ALQDS TSB2359 P0086 T02170194 =
2018-08-17 20:31 METAR KPSF 180031Z AUTO 25020G29KT 3/4SM +TSRA BR BKN029 BKN040 OVC060 22/20
                 A2998 RMK AO2 PK WND 23029/0029 LTG DSNT ALQDS TSB2359 P0058 T02220200 =
2018-08-17 20:27 METAR KPSF 180027Z AUTO 23013G20KT 1SM +TSRA BR BKN037 OVC060 23/21 A2997 RMK
                 AO2 LTG DSNT ALQDS TSB2359 P0037 T02330211 =
2018-08-17 20:16 METAR KPSF 180016Z AUTO VRB05KT 2 1/2SM TSRA FEW032 BKN050 OVC070 24/21 A2996
                 RMK AO2 LTG DSNT ALQDS TSB2359 P0010 T02390211 =
2018-08-17 20:05 METAR KPSF 180005Z AUTO 23006KT 4SM TSRA FEW035 BKN060 OVC075 24/21 A2995 RMK
                 AO2 LTG DSNT ALQDS TSB2359 PRESRR P0003 T02390211 =
2018-08-17 19:54 METAR KPSF 172354Z AUTO VRB04KT 7SM VCTS -RA FEW037 BKN070 OVC100 24/21 A2993
                 RMK AO2 LTG DSNT ALQDS RAB40 SLP109 P0001 60012 T02390211 10289 20239 57009 =
2018-08-17 19:28 METAR KPSF 172328Z AUTO 17008KT 6SM VCTS HZ BKN085 24/21 A2994 RMK AO2 LTG DSNT
                 ALQDS T02390211 =
2018-08-17 18:54 METAR KPSF 172254Z AUTO 17010G17KT 9SM FEW027 SCT100 SCT120 24/21 A2994 RMK AO2
                 LTG DSNT S AND NW RAE07B40E41 TSE10 SLP114 P0000 T02390206 =
2018-08-17 18:45 METAR KPSF 172245Z AUTO 17010G17KT 8SM FEW027 SCT040 BKN100 24/21 A2993 RMK AO2
                 LTG DSNT S RAE07B40E41 TSE10 P0000 T02440206 =
2018-08-17 18:16 METAR KPSF 172216Z AUTO 18008KT 7SM VCTS FEW016 SCT021 BKN090 25/22 A2994 RMK
                 AO2 LTG DSNT ALQDS RAE07 TSE10 P0000 T02500217 =
2018-08-17 17:54 METAR KPSF 172154Z AUTO VRB05G15KT 4SM -TSRA SCT020 BKN032 OVC075 25/22 A2995
                 RMK AO2 LTG DSNT SE-SW RAB21 TSB27 SLP117 P0011 T02500217 =
2018-08-17 17:40 METAR KPSF 172140Z AUTO 30005KT 4SM -TSRA SCT036 BKN050 OVC110 25/22 A2996 RMK
                 AO2 LTG DSNT SE-W RAB21 TSB27 P0008 T02500217 =
2018-08-17 17:33 METAR KPSF 172133Z AUTO 19006KT 2 1/2SM -TSRA FEW040 BKN060 OVC110 25/22 A2996
                 RMK AO2 LTG DSNT SE AND W RAB21 TSB27 P0007 T02500217 =
2018-08-17 17:25 METAR KPSF 172125Z AUTO 18007KT 1 3/4SM VCTS +RA FEW036 BKN065 OVC080 26/21
                 A2996 RMK AO2 LTG DSNT W RAB21 P0006 T02610211 =
2018-08-17 17:10 METAR KPSF 172110Z AUTO 18007KT 10SM VCTS SCT070 BKN090 OVC110 27/21 A2995 RMK
                 AO2 LTG DSNT W T02720206 =
2018-08-17 16:54 METAR KPSF 172054Z AUTO 19007KT 10SM BKN090 BKN110 28/21 A2996 RMK AO2 LTG DSNT
                 SW AND W SLP117 T02780206 56023 =
2018-08-17 15:54 METAR KPSF 171954Z AUTO 18009KT 10SM CLR 28/21 A2998 RMK AO2 SLP123 T02830206 =
2018-08-17 14:54 METAR KPSF 171854Z AUTO 16007KT 10SM BKN110 28/21 A3000 RMK AO2 SLP130 T02780206
                 =
2018-08-17 13:54 METAR KPSF 171754Z AUTO 15007KT 9SM FEW070 BKN100 OVC120 26/20 A3003 RMK AO2
                 RAB02E14 SLP141 P0000 60000 T02610200 10272 20194 56022 =
2018-08-17 12:54 METAR KPSF 171654Z AUTO 20008KT 9SM FEW024 SCT031 BKN060 27/21 A3005 RMK AO2 LTG
                 DSNT SE SLP148 T02670206 =
2018-08-17 11:54 METAR KPSF 171554Z AUTO VRB03KT 9SM FEW090 27/21 A3007 RMK AO2 SLP154 T02670206
                 =
2018-08-17 10:54 METAR KPSF 171454Z AUTO 00000KT 7SM SCT070 25/21 A3009 RMK AO2 SLP163 T02500206
                 58002 =
2018-08-17 09:54 METAR KPSF 171354Z AUTO 00000KT 7SM CLR 24/19 A3010 RMK AO2 SLP166 T02390194 =
2018-08-17 08:54 METAR KPSF 171254Z AUTO 00000KT 6SM HZ FEW065 22/19 A3010 RMK AO2 SLP167
                 T02170189 =
2018-08-17 08:08 METAR KPSF 171208Z AUTO 00000KT 4SM BR SCT002 20/18 A3010 RMK AO2 T02000183 =
2018-08-17 07:54 METAR KPSF 171154Z AUTO 00000KT 3SM BR BKN002 20/18 A3010 RMK AO2 SLP166
                 T02000183 10200 20178 56002 =
2018-08-17 07:45 METAR KPSF 171145Z AUTO 00000KT 2 1/2SM BR OVC002 19/18 A3010 RMK AO2 T01940183
                 =
2018-08-17 07:23 METAR KPSF 171123Z AUTO 05003KT 1SM BR VV002 19/18 A3010 RMK AO2 T01890178 =
2018-08-17 07:11 METAR KPSF 171111Z AUTO 00000KT 1/4SM FG VV002 19/18 A3010 RMK AO2 T01890178 =
2018-08-17 06:54 METAR KPSF 171054Z AUTO 00000KT M1/4SM FG VV001 18/17 A3010 RMK AO2 SLP167
                 T01830172 =
2018-08-17 06:37 METAR KPSF 171037Z AUTO 00000KT M1/4SM FG VV001 18/17 A3011 RMK AO2 T01830172 =
2018-08-17 06:21 METAR KPSF 171021Z AUTO 00000KT M1/4SM FG VV002 18/17 A3011 RMK AO2 T01780167 =
2018-08-17 05:54 METAR KPSF 170954Z AUTO 00000KT 1/4SM FG VV001 18/17 A3011 RMK AO2 SLP167
                 T01830167 =
2018-08-17 05:40 METAR KPSF 170940Z AUTO 00000KT 1/4SM FG VV001 18/17 A3011 RMK AO2 T01830172 =
2018-08-17 05:14 METAR KPSF 170914Z AUTO 00000KT M1/4SM FG VV002 18/17 A3011 RMK AO2 T01830172 =
2018-08-17 04:54 METAR KPSF 170854Z AUTO 00000KT 1/4SM FG VV001 19/17 A3011 RMK AO2 SLP167
                 T01890172 55002 =
2018-08-17 03:54 METAR KPSF 170754Z AUTO 00000KT 1/4SM FG VV001 19/17 A3010 RMK AO2 SLP166
                 T01890172 =

Support USWX by starting your Amazon purchase here.